JFK weather

John F Kennedy International Airport
New York, New York, United States

Public forecast

Using degrees Fahrenheit for public forecast. Weather courtesy of forecast.io.

METAR (pilot weather report)

Retrieved 2018/07/16 23:51 UTC (56 minutes ago):

KJFK 162351Z 17015KT 10SM FEW050 FEW100 BKN250 26/23 A2991 RMK AO2 SLP128 TCU DSNT W T02560233 10300 20256 56011

TAF (pilot weather forecast)

Forecast is more than 12 hours old.

Retrieved 2018/07/16 00:28 UTC (1 day ago):

TAF KJFK 162326Z 1700/1806 18014KT P6SM FEW050 BKN250 FM170100 20009KT P6SM FEW050 BKN250 TEMPO 1709/1711 6SM BR FEW015 FM171600 19013KT P6SM VCSH BKN050 PROB30 1719/1723 25015G25KT 2SM +TSRA BR SCT015CB OVC050 FM172300 24010KT P6SM VCSH BKN050 FM180300 32006KT P6SM SCT050 BKN120